sensor_id;sensor_type;location;lat;lon;timestamp;temperature;humidity
61016;DHT22;46902;52.920;6.536;2023-04-03T00:01:04;4.50;81.60
61016;DHT22;46902;52.920;6.536;2023-04-03T00:03:30;4.40;81.60
61016;DHT22;46902;52.920;6.536;2023-04-03T00:05:56;4.40;81.70
61016;DHT22;46902;52.920;6.536;2023-04-03T00:08:22;4.30;81.80
61016;DHT22;46902;52.920;6.536;2023-04-03T00:10:48;4.30;82.00
61016;DHT22;46902;52.920;6.536;2023-04-03T00:13:14;4.30;81.90
61016;DHT22;46902;52.920;6.536;2023-04-03T00:15:40;4.30;81.90
61016;DHT22;46902;52.920;6.536;2023-04-03T00:18:06;4.20;82.00
61016;DHT22;46902;52.920;6.536;2023-04-03T00:20:32;4.20;82.10
61016;DHT22;46902;52.920;6.536;2023-04-03T00:22:58;4.20;82.10
61016;DHT22;46902;52.920;6.536;2023-04-03T00:25:24;4.10;82.40
61016;DHT22;46902;52.920;6.536;2023-04-03T00:27:50;4.10;82.60
61016;DHT22;46902;52.920;6.536;2023-04-03T00:30:17;4.00;82.70
61016;DHT22;46902;52.920;6.536;2023-04-03T00:32:43;4.00;82.90
61016;DHT22;46902;52.920;6.536;2023-04-03T00:35:09;4.00;83.00
61016;DHT22;46902;52.920;6.536;2023-04-03T00:37:35;4.00;83.30
61016;DHT22;46902;52.920;6.536;2023-04-03T00:40:02;4.00;83.50
61016;DHT22;46902;52.920;6.536;2023-04-03T00:42:28;4.00;83.80
61016;DHT22;46902;52.920;6.536;2023-04-03T00:47:23;3.90;84.00
61016;DHT22;46902;52.920;6.536;2023-04-03T00:49:50;3.90;84.30
61016;DHT22;46902;52.920;6.536;2023-04-03T00:52:19;3.80;84.30
61016;DHT22;46902;52.920;6.536;2023-04-03T00:54:47;3.80;84.50
61016;DHT22;46902;52.920;6.536;2023-04-03T00:57:14;3.80;84.80
61016;DHT22;46902;52.920;6.536;2023-04-03T00:59:46;3.80;84.90
61016;DHT22;46902;52.920;6.536;2023-04-03T01:02:15;3.80;85.80
61016;DHT22;46902;52.920;6.536;2023-04-03T01:04:42;3.70;85.20
61016;DHT22;46902;52.920;6.536;2023-04-03T01:09:48;3.70;85.50
61016;DHT22;46902;52.920;6.536;2023-04-03T01:12:19;3.70;85.70
61016;DHT22;46902;52.920;6.536;2023-04-03T01:14:48;3.70;85.90
61016;DHT22;46902;52.920;6.536;2023-04-03T01:17:44;3.60;85.90
61016;DHT22;46902;52.920;6.536;2023-04-03T01:25:26;3.60;86.80
61016;DHT22;46902;52.920;6.536;2023-04-03T01:27:52;3.50;87.00
61016;DHT22;46902;52.920;6.536;2023-04-03T01:30:19;3.50;87.70
61016;DHT22;46902;52.920;6.536;2023-04-03T01:32:45;3.50;87.40
61016;DHT22;46902;52.920;6.536;2023-04-03T01:35:12;3.40;87.30
61016;DHT22;46902;52.920;6.536;2023-04-03T01:37:38;3.40;87.50
61016;DHT22;46902;52.920;6.536;2023-04-03T01:40:04;3.40;87.70
61016;DHT22;46902;52.920;6.536;2023-04-03T01:42:29;3.30;87.90
61016;DHT22;46902;52.920;6.536;2023-04-03T01:44:55;3.30;88.20
61016;DHT22;46902;52.920;6.536;2023-04-03T01:47:21;3.30;88.40
61016;DHT22;46902;52.920;6.536;2023-04-03T01:49:47;3.40;88.60
61016;DHT22;46902;52.920;6.536;2023-04-03T01:52:12;3.30;88.70
61016;DHT22;46902;52.920;6.536;2023-04-03T01:54:38;3.30;88.80
61016;DHT22;46902;52.920;6.536;2023-04-03T01:57:04;3.30;89.00
61016;DHT22;46902;52.920;6.536;2023-04-03T01:59:30;3.30;89.10
61016;DHT22;46902;52.920;6.536;2023-04-03T02:01:55;3.30;89.00
61016;DHT22;46902;52.920;6.536;2023-04-03T02:04:21;3.20;89.40
61016;DHT22;46902;52.920;6.536;2023-04-03T02:06:47;3.20;89.60
61016;DHT22;46902;52.920;6.536;2023-04-03T02:09:13;3.20;90.00
61016;DHT22;46902;52.920;6.536;2023-04-03T02:11:39;3.20;90.00
61016;DHT22;46902;52.920;6.536;2023-04-03T02:14:04;3.20;90.10
61016;DHT22;46902;52.920;6.536;2023-04-03T02:16:30;3.20;90.10
61016;DHT22;46902;52.920;6.536;2023-04-03T02:18:56;3.20;90.20
61016;DHT22;46902;52.920;6.536;2023-04-03T02:21:22;3.20;90.30
61016;DHT22;46902;52.920;6.536;2023-04-03T02:23:48;3.10;90.40
61016;DHT22;46902;52.920;6.536;2023-04-03T02:26:15;3.10;90.50
61016;DHT22;46902;52.920;6.536;2023-04-03T02:28:41;3.20;90.60
61016;DHT22;46902;52.920;6.536;2023-04-03T02:31:08;3.10;90.80
61016;DHT22;46902;52.920;6.536;2023-04-03T02:33:34;3.10;90.90
61016;DHT22;46902;52.920;6.536;2023-04-03T02:36:03;3.10;91.00
61016;DHT22;46902;52.920;6.536;2023-04-03T02:38:29;3.10;91.10
61016;DHT22;46902;52.920;6.536;2023-04-03T02:41:03;3.10;91.50
61016;DHT22;46902;52.920;6.536;2023-04-03T02:43:29;3.10;91.40
61016;DHT22;46902;52.920;6.536;2023-04-03T02:45:55;3.00;91.40
61016;DHT22;46902;52.920;6.536;2023-04-03T02:48:21;3.00;91.50
61016;DHT22;46902;52.920;6.536;2023-04-03T02:50:46;3.00;91.60
61016;DHT22;46902;52.920;6.536;2023-04-03T02:53:12;3.00;91.70
61016;DHT22;46902;52.920;6.536;2023-04-03T02:55:37;2.90;91.90
61016;DHT22;46902;52.920;6.536;2023-04-03T02:58:03;2.90;92.00
61016;DHT22;46902;52.920;6.536;2023-04-03T03:00:29;2.90;92.20
61016;DHT22;46902;52.920;6.536;2023-04-03T03:02:55;2.90;92.30
61016;DHT22;46902;52.920;6.536;2023-04-03T03:05:20;2.80;92.40
61016;DHT22;46902;52.920;6.536;2023-04-03T03:07:47;2.80;92.70
61016;DHT22;46902;52.920;6.536;2023-04-03T03:10:13;2.70;92.80
61016;DHT22;46902;52.920;6.536;2023-04-03T03:12:38;2.70;93.00
61016;DHT22;46902;52.920;6.536;2023-04-03T03:15:04;2.70;93.20
61016;DHT22;46902;52.920;6.536;2023-04-03T03:17:30;2.60;93.30
61016;DHT22;46902;52.920;6.536;2023-04-03T03:19:56;2.60;93.40
61016;DHT22;46902;52.920;6.536;2023-04-03T03:22:21;2.50;93.60
61016;DHT22;46902;52.920;6.536;2023-04-03T03:24:47;2.50;93.80
61016;DHT22;46902;52.920;6.536;2023-04-03T03:27:12;2.60;94.00
61016;DHT22;46902;52.920;6.536;2023-04-03T03:29:38;2.50;94.10
61016;DHT22;46902;52.920;6.536;2023-04-03T03:32:04;2.50;94.60
61016;DHT22;46902;52.920;6.536;2023-04-03T03:34:30;2.50;94.40
61016;DHT22;46902;52.920;6.536;2023-04-03T03:36:55;2.40;94.50
61016;DHT22;46902;52.920;6.536;2023-04-03T03:39:21;2.30;94.70
61016;DHT22;46902;52.920;6.536;2023-04-03T03:41:47;2.30;94.90
61016;DHT22;46902;52.920;6.536;2023-04-03T03:44:12;2.30;95.10
61016;DHT22;46902;52.920;6.536;2023-04-03T03:46:38;2.20;95.20
61016;DHT22;46902;52.920;6.536;2023-04-03T03:49:04;2.20;95.40
61016;DHT22;46902;52.920;6.536;2023-04-03T03:51:29;2.20;95.60
61016;DHT22;46902;52.920;6.536;2023-04-03T03:53:55;2.20;95.60
61016;DHT22;46902;52.920;6.536;2023-04-03T03:56:21;2.10;95.60
61016;DHT22;46902;52.920;6.536;2023-04-03T03:58:46;2.10;95.80
61016;DHT22;46902;52.920;6.536;2023-04-03T04:01:12;2.10;95.90
61016;DHT22;46902;52.920;6.536;2023-04-03T04:03:38;2.10;96.10
61016;DHT22;46902;52.920;6.536;2023-04-03T04:06:03;2.00;96.30
61016;DHT22;46902;52.920;6.536;2023-04-03T04:08:29;2.00;96.50
61016;DHT22;46902;52.920;6.536;2023-04-03T04:10:55;2.00;96.80
61016;DHT22;46902;52.920;6.536;2023-04-03T04:13:21;1.90;96.80
61016;DHT22;46902;52.920;6.536;2023-04-03T04:15:46;1.90;96.90
61016;DHT22;46902;52.920;6.536;2023-04-03T04:18:12;1.90;97.10
61016;DHT22;46902;52.920;6.536;2023-04-03T04:20:38;1.90;97.30
61016;DHT22;46902;52.920;6.536;2023-04-03T04:23:03;1.80;97.50
61016;DHT22;46902;52.920;6.536;2023-04-03T04:25:29;1.80;97.80
61016;DHT22;46902;52.920;6.536;2023-04-03T04:27:54;1.80;97.90
61016;DHT22;46902;52.920;6.536;2023-04-03T04:30:20;1.70;98.10
61016;DHT22;46902;52.920;6.536;2023-04-03T04:32:45;1.80;98.20
61016;DHT22;46902;52.920;6.536;2023-04-03T04:35:12;1.70;98.40
61016;DHT22;46902;52.920;6.536;2023-04-03T04:37:37;1.70;98.60
61016;DHT22;46902;52.920;6.536;2023-04-03T04:40:03;1.70;98.90
61016;DHT22;46902;52.920;6.536;2023-04-03T04:42:29;1.60;99.10
61016;DHT22;46902;52.920;6.536;2023-04-03T04:44:54;1.60;99.30
61016;DHT22;46902;52.920;6.536;2023-04-03T04:47:20;1.60;99.40
61016;DHT22;46902;52.920;6.536;2023-04-03T04:49:46;1.50;99.60
61016;DHT22;46902;52.920;6.536;2023-04-03T04:52:13;1.50;99.80
61016;DHT22;46902;52.920;6.536;2023-04-03T04:54:38;1.50;99.90
61016;DHT22;46902;52.920;6.536;2023-04-03T04:57:04;1.50;99.90
61016;DHT22;46902;52.920;6.536;2023-04-03T04:59:30;1.50;99.90
61016;DHT22;46902;52.920;6.536;2023-04-03T05:01:55;1.50;99.90
61016;DHT22;46902;52.920;6.536;2023-04-03T05:04:21;1.50;99.90
61016;DHT22;46902;52.920;6.536;2023-04-03T05:06:47;1.50;99.90
61016;DHT22;46902;52.920;6.536;2023-04-03T05:09:12;1.50;99.90
61016;DHT22;46902;52.920;6.536;2023-04-03T05:11:38;1.50;99.90
61016;DHT22;46902;52.920;6.536;2023-04-03T05:14:03;1.50;99.90
61016;DHT22;46902;52.920;6.536;2023-04-03T05:16:32;1.50;99.90
61016;DHT22;46902;52.920;6.536;2023-04-03T05:18:57;1.40;99.90
61016;DHT22;46902;52.920;6.536;2023-04-03T05:21:23;1.40;99.90
61016;DHT22;46902;52.920;6.536;2023-04-03T05:23:51;1.50;99.90
61016;DHT22;46902;52.920;6.536;2023-04-03T05:26:17;1.50;99.90
61016;DHT22;46902;52.920;6.536;2023-04-03T05:28:43;1.50;99.90
61016;DHT22;46902;52.920;6.536;2023-04-03T05:31:08;1.50;99.90
61016;DHT22;46902;52.920;6.536;2023-04-03T05:33:34;1.50;99.90
61016;DHT22;46902;52.920;6.536;2023-04-03T05:36:06;1.50;99.90
61016;DHT22;46902;52.920;6.536;2023-04-03T05:38:32;1.50;99.90
61016;DHT22;46902;52.920;6.536;2023-04-03T05:40:58;1.50;99.90
61016;DHT22;46902;52.920;6.536;2023-04-03T05:43:24;1.50;99.90
61016;DHT22;46902;52.920;6.536;2023-04-03T05:45:51;1.50;99.90
61016;DHT22;46902;52.920;6.536;2023-04-03T05:48:16;1.50;99.90
61016;DHT22;46902;52.920;6.536;2023-04-03T05:50:42;1.50;99.90
61016;DHT22;46902;52.920;6.536;2023-04-03T05:53:14;1.50;99.90
61016;DHT22;46902;52.920;6.536;2023-04-03T05:55:40;1.60;99.90
61016;DHT22;46902;52.920;6.536;2023-04-03T05:58:06;1.50;99.90
61016;DHT22;46902;52.920;6.536;2023-04-03T06:00:32;1.50;99.90
61016;DHT22;46902;52.920;6.536;2023-04-03T06:02:57;1.60;99.90
61016;DHT22;46902;52.920;6.536;2023-04-03T06:05:23;1.60;99.90
61016;DHT22;46902;52.920;6.536;2023-04-03T06:07:49;1.70;99.90
61016;DHT22;46902;52.920;6.536;2023-04-03T06:10:15;1.70;99.90
61016;DHT22;46902;52.920;6.536;2023-04-03T06:12:40;1.80;99.90
61016;DHT22;46902;52.920;6.536;2023-04-03T06:15:07;1.80;99.90
61016;DHT22;46902;52.920;6.536;2023-04-03T06:17:35;1.90;99.90
61016;DHT22;46902;52.920;6.536;2023-04-03T06:20:01;1.90;99.90
61016;DHT22;46902;52.920;6.536;2023-04-03T06:22:27;1.90;99.90
61016;DHT22;46902;52.920;6.536;2023-04-03T06:24:55;2.00;99.90
61016;DHT22;46902;52.920;6.536;2023-04-03T06:27:21;2.10;99.90
61016;DHT22;46902;52.920;6.536;2023-04-03T06:29:47;2.10;99.90
61016;DHT22;46902;52.920;6.536;2023-04-03T06:32:14;2.20;99.90
61016;DHT22;46902;52.920;6.536;2023-04-03T06:34:40;2.20;99.90
61016;DHT22;46902;52.920;6.536;2023-04-03T06:37:10;2.30;99.90
61016;DHT22;46902;52.920;6.536;2023-04-03T06:39:36;2.30;99.90
61016;DHT22;46902;52.920;6.536;2023-04-03T06:42:01;2.40;99.90
61016;DHT22;46902;52.920;6.536;2023-04-03T06:44:27;2.50;99.90
61016;DHT22;46902;52.920;6.536;2023-04-03T06:46:53;2.50;99.90
61016;DHT22;46902;52.920;6.536;2023-04-03T06:49:19;2.60;99.90
61016;DHT22;46902;52.920;6.536;2023-04-03T06:51:45;2.60;99.90
61016;DHT22;46902;52.920;6.536;2023-04-03T06:54:10;2.70;99.90
61016;DHT22;46902;52.920;6.536;2023-04-03T06:56:37;2.80;99.90
61016;DHT22;46902;52.920;6.536;2023-04-03T06:59:02;2.80;99.90
61016;DHT22;46902;52.920;6.536;2023-04-03T07:01:29;2.90;99.90
61016;DHT22;46902;52.920;6.536;2023-04-03T07:03:56;2.90;99.90
61016;DHT22;46902;52.920;6.536;2023-04-03T07:06:22;3.00;99.90
61016;DHT22;46902;52.920;6.536;2023-04-03T07:08:47;3.00;99.90
61016;DHT22;46902;52.920;6.536;2023-04-03T07:11:16;3.10;99.90
61016;DHT22;46902;52.920;6.536;2023-04-03T07:13:42;3.10;99.90
61016;DHT22;46902;52.920;6.536;2023-04-03T07:16:08;3.20;99.90
61016;DHT22;46902;52.920;6.536;2023-04-03T07:18:34;3.20;99.90
61016;DHT22;46902;52.920;6.536;2023-04-03T07:21:00;3.30;99.90
61016;DHT22;46902;52.920;6.536;2023-04-03T07:23:26;3.30;99.90
61016;DHT22;46902;52.920;6.536;2023-04-03T07:25:52;3.40;99.70
61016;DHT22;46902;52.920;6.536;2023-04-03T07:28:19;3.50;99.60
61016;DHT22;46902;52.920;6.536;2023-04-03T07:30:48;3.60;99.70
61016;DHT22;46902;52.920;6.536;2023-04-03T07:33:15;3.70;99.40
61016;DHT22;46902;52.920;6.536;2023-04-03T07:35:42;3.80;99.10
61016;DHT22;46902;52.920;6.536;2023-04-03T07:38:08;3.80;98.90
61016;DHT22;46902;52.920;6.536;2023-04-03T07:40:34;3.90;98.60
61016;DHT22;46902;52.920;6.536;2023-04-03T07:43:00;4.00;98.20
61016;DHT22;46902;52.920;6.536;2023-04-03T07:45:26;4.10;98.00
61016;DHT22;46902;52.920;6.536;2023-04-03T07:47:52;4.20;97.90
61016;DHT22;46902;52.920;6.536;2023-04-03T07:50:18;4.30;97.80
61016;DHT22;46902;52.920;6.536;2023-04-03T07:52:44;4.40;97.30
61016;DHT22;46902;52.920;6.536;2023-04-03T07:55:10;4.50;96.50
61016;DHT22;46902;52.920;6.536;2023-04-03T07:57:36;4.60;95.70
61016;DHT22;46902;52.920;6.536;2023-04-03T08:00:06;4.70;95.60
61016;DHT22;46902;52.920;6.536;2023-04-03T08:02:32;4.80;95.20
61016;DHT22;46902;52.920;6.536;2023-04-03T08:04:58;4.90;94.80
61016;DHT22;46902;52.920;6.536;2023-04-03T08:07:24;5.00;94.10
61016;DHT22;46902;52.920;6.536;2023-04-03T08:09:50;5.10;93.80
61016;DHT22;46902;52.920;6.536;2023-04-03T08:12:16;5.30;93.10
61016;DHT22;46902;52.920;6.536;2023-04-03T08:14:42;5.40;92.50
61016;DHT22;46902;52.920;6.536;2023-04-03T08:17:08;5.50;92.10
61016;DHT22;46902;52.920;6.536;2023-04-03T08:19:37;5.70;91.80
61016;DHT22;46902;52.920;6.536;2023-04-03T08:22:03;5.90;91.00
61016;DHT22;46902;52.920;6.536;2023-04-03T08:24:31;6.00;90.60
61016;DHT22;46902;52.920;6.536;2023-04-03T08:26:56;6.20;89.40
61016;DHT22;46902;52.920;6.536;2023-04-03T08:29:23;6.30;87.60
61016;DHT22;46902;52.920;6.536;2023-04-03T08:31:49;6.60;87.10
61016;DHT22;46902;52.920;6.536;2023-04-03T08:34:15;6.80;86.10
61016;DHT22;46902;52.920;6.536;2023-04-03T08:36:41;6.90;85.10
61016;DHT22;46902;52.920;6.536;2023-04-03T08:39:07;7.10;84.50
61016;DHT22;46902;52.920;6.536;2023-04-03T08:41:41;7.30;83.30
61016;DHT22;46902;52.920;6.536;2023-04-03T08:49:33;8.00;80.00
61016;DHT22;46902;52.920;6.536;2023-04-03T08:52:04;8.20;76.90
61016;DHT22;46902;52.920;6.536;2023-04-03T08:54:34;8.40;75.00
61016;DHT22;46902;52.920;6.536;2023-04-03T08:57:04;8.60;73.60
61016;DHT22;46902;52.920;6.536;2023-04-03T08:59:33;8.90;73.00
61016;DHT22;46902;52.920;6.536;2023-04-03T09:02:04;9.10;72.70
61016;DHT22;46902;52.920;6.536;2023-04-03T09:04:36;9.30;70.70
61016;DHT22;46902;52.920;6.536;2023-04-03T09:07:13;9.50;70.80
61016;DHT22;46902;52.920;6.536;2023-04-03T09:09:42;9.60;67.20
61016;DHT22;46902;52.920;6.536;2023-04-03T09:17:46;10.00;61.20
61016;DHT22;46902;52.920;6.536;2023-04-03T09:20:19;10.20;61.60
61016;DHT22;46902;52.920;6.536;2023-04-03T09:22:46;10.40;60.90
61016;DHT22;46902;52.920;6.536;2023-04-03T09:25:17;10.60;60.50
61016;DHT22;46902;52.920;6.536;2023-04-03T09:27:44;10.70;58.10
61016;DHT22;46902;52.920;6.536;2023-04-03T09:30:15;10.80;58.50
61016;DHT22;46902;52.920;6.536;2023-04-03T09:32:41;11.00;57.40
61016;DHT22;46902;52.920;6.536;2023-04-03T09:35:30;11.20;57.70
61016;DHT22;46902;52.920;6.536;2023-04-03T09:40:42;11.60;54.00
61016;DHT22;46902;52.920;6.536;2023-04-03T09:43:30;11.80;54.50
61016;DHT22;46902;52.920;6.536;2023-04-03T09:46:15;12.00;52.10
61016;DHT22;46902;52.920;6.536;2023-04-03T09:48:50;12.10;54.30
61016;DHT22;46902;52.920;6.536;2023-04-03T09:51:16;12.20;53.60
61016;DHT22;46902;52.920;6.536;2023-04-03T09:53:44;12.30;53.90
61016;DHT22;46902;52.920;6.536;2023-04-03T09:58:47;12.50;53.00
61016;DHT22;46902;52.920;6.536;2023-04-03T10:01:30;12.60;52.80
61016;DHT22;46902;52.920;6.536;2023-04-03T10:04:17;12.90;52.80
61016;DHT22;46902;52.920;6.536;2023-04-03T10:06:54;13.10;49.40
61016;DHT22;46902;52.920;6.536;2023-04-03T10:09:28;13.10;49.40
61016;DHT22;46902;52.920;6.536;2023-04-03T10:12:09;13.10;49.40
61016;DHT22;46902;52.920;6.536;2023-04-03T10:31:22;13.60;46.00
61016;DHT22;46902;52.920;6.536;2023-04-03T10:37:21;13.90;47.50
61016;DHT22;46902;52.920;6.536;2023-04-03T10:39:59;14.10;46.30
61016;DHT22;46902;52.920;6.536;2023-04-03T10:42:54;14.20;46.00
61016;DHT22;46902;52.920;6.536;2023-04-03T10:53:52;14.50;46.30
61016;DHT22;46902;52.920;6.536;2023-04-03T10:56:47;14.50;45.30
61016;DHT22;46902;52.920;6.536;2023-04-03T10:59:32;14.50;45.30
61016;DHT22;46902;52.920;6.536;2023-04-03T11:02:01;14.50;44.90
61016;DHT22;46902;52.920;6.536;2023-04-03T11:04:33;14.70;45.70
61016;DHT22;46902;52.920;6.536;2023-04-03T11:07:10;14.70;45.80
61016;DHT22;46902;52.920;6.536;2023-04-03T11:09:41;14.70;43.80
61016;DHT22;46902;52.920;6.536;2023-04-03T11:12:26;14.60;43.60
61016;DHT22;46902;52.920;6.536;2023-04-03T11:14:55;14.60;43.60
61016;DHT22;46902;52.920;6.536;2023-04-03T11:17:31;14.60;44.60
61016;DHT22;46902;52.920;6.536;2023-04-03T11:20:00;14.80;45.40
61016;DHT22;46902;52.920;6.536;2023-04-03T11:22:48;14.90;44.90
61016;DHT22;46902;52.920;6.536;2023-04-03T11:25:24;15.00;44.40
61016;DHT22;46902;52.920;6.536;2023-04-03T11:27:58;14.90;43.60
61016;DHT22;46902;52.920;6.536;2023-04-03T11:30:30;15.00;43.90
61016;DHT22;46902;52.920;6.536;2023-04-03T11:35:47;15.00;43.70
61016;DHT22;46902;52.920;6.536;2023-04-03T11:38:27;15.10;44.10
61016;DHT22;46902;52.920;6.536;2023-04-03T11:40:56;15.30;44.80
61016;DHT22;46902;52.920;6.536;2023-04-03T11:43:26;15.40;44.50
61016;DHT22;46902;52.920;6.536;2023-04-03T11:45:54;15.40;44.40
61016;DHT22;46902;52.920;6.536;2023-04-03T11:50:54;15.70;43.20
61016;DHT22;46902;52.920;6.536;2023-04-03T11:58:34;15.80;43.00
61016;DHT22;46902;52.920;6.536;2023-04-03T12:01:10;15.80;42.70
61016;DHT22;46902;52.920;6.536;2023-04-03T12:16:42;16.30;42.30
61016;DHT22;46902;52.920;6.536;2023-04-03T12:37:47;16.30;39.40
61016;DHT22;46902;52.920;6.536;2023-04-03T12:40:25;16.40;40.50
61016;DHT22;46902;52.920;6.536;2023-04-03T12:45:56;16.70;41.10
61016;DHT22;46902;52.920;6.536;2023-04-03T12:48:30;16.90;41.30
61016;DHT22;46902;52.920;6.536;2023-04-03T12:50:58;17.00;42.10
61016;DHT22;46902;52.920;6.536;2023-04-03T12:53:29;17.10;41.60
61016;DHT22;46902;52.920;6.536;2023-04-03T12:56:25;17.30;40.70
61016;DHT22;46902;52.920;6.536;2023-04-03T12:58:54;17.30;42.30
61016;DHT22;46902;52.920;6.536;2023-04-03T13:01:26;17.10;40.60
61016;DHT22;46902;52.920;6.536;2023-04-03T13:03:55;17.10;40.60
61016;DHT22;46902;52.920;6.536;2023-04-03T13:06:32;17.00;41.10
61016;DHT22;46902;52.920;6.536;2023-04-03T13:09:01;17.00;40.50
61016;DHT22;46902;52.920;6.536;2023-04-03T13:11:39;16.90;40.90
61016;DHT22;46902;52.920;6.536;2023-04-03T13:14:16;17.10;40.90
61016;DHT22;46902;52.920;6.536;2023-04-03T13:16:52;17.10;41.40
61016;DHT22;46902;52.920;6.536;2023-04-03T13:19:18;17.20;41.90
61016;DHT22;46902;52.920;6.536;2023-04-03T13:21:44;17.30;41.20
61016;DHT22;46902;52.920;6.536;2023-04-03T13:24:11;17.20;40.40
61016;DHT22;46902;52.920;6.536;2023-04-03T13:26:37;17.20;40.90
61016;DHT22;46902;52.920;6.536;2023-04-03T13:29:17;17.20;40.00
61016;DHT22;46902;52.920;6.536;2023-04-03T13:31:44;17.20;39.70
61016;DHT22;46902;52.920;6.536;2023-04-03T13:34:17;17.10;40.30
61016;DHT22;46902;52.920;6.536;2023-04-03T13:36:57;17.20;39.80
61016;DHT22;46902;52.920;6.536;2023-04-03T13:39:26;17.00;40.20
61016;DHT22;46902;52.920;6.536;2023-04-03T13:41:54;16.80;40.50
61016;DHT22;46902;52.920;6.536;2023-04-03T13:45:05;16.80;41.40
61016;DHT22;46902;52.920;6.536;2023-04-03T13:47:19;16.80;41.40
61016;DHT22;46902;52.920;6.536;2023-04-03T13:52:39;17.00;41.40
61016;DHT22;46902;52.920;6.536;2023-04-03T13:55:27;17.00;42.80
61016;DHT22;46902;52.920;6.536;2023-04-03T14:00:59;16.70;40.90
61016;DHT22;46902;52.920;6.536;2023-04-03T14:03:32;16.50;39.40
61016;DHT22;46902;52.920;6.536;2023-04-03T14:05:59;16.30;41.00
61016;DHT22;46902;52.920;6.536;2023-04-03T14:08:26;16.30;41.10
61016;DHT22;46902;52.920;6.536;2023-04-03T14:10:53;16.30;40.80
61016;DHT22;46902;52.920;6.536;2023-04-03T14:13:19;16.20;41.40
61016;DHT22;46902;52.920;6.536;2023-04-03T14:15:46;16.30;40.90
61016;DHT22;46902;52.920;6.536;2023-04-03T14:18:15;16.20;41.10
61016;DHT22;46902;52.920;6.536;2023-04-03T14:20:42;16.30;42.40
61016;DHT22;46902;52.920;6.536;2023-04-03T14:23:09;16.40;41.90
61016;DHT22;46902;52.920;6.536;2023-04-03T14:25:35;16.40;41.30
61016;DHT22;46902;52.920;6.536;2023-04-03T14:28:01;16.30;41.40
61016;DHT22;46902;52.920;6.536;2023-04-03T14:30:29;16.30;41.50
61016;DHT22;46902;52.920;6.536;2023-04-03T14:32:56;16.20;40.10
61016;DHT22;46902;52.920;6.536;2023-04-03T14:35:23;16.10;40.30
61016;DHT22;46902;52.920;6.536;2023-04-03T14:37:49;16.10;41.80
61016;DHT22;46902;52.920;6.536;2023-04-03T14:40:20;16.10;41.60
61016;DHT22;46902;52.920;6.536;2023-04-03T14:42:46;15.90;41.20
61016;DHT22;46902;52.920;6.536;2023-04-03T14:45:14;15.80;41.90
61016;DHT22;46902;52.920;6.536;2023-04-03T14:47:46;15.80;41.30
61016;DHT22;46902;52.920;6.536;2023-04-03T14:50:19;15.80;41.60
61016;DHT22;46902;52.920;6.536;2023-04-03T14:52:47;15.80;40.50
61016;DHT22;46902;52.920;6.536;2023-04-03T14:55:16;15.70;40.80
61016;DHT22;46902;52.920;6.536;2023-04-03T14:57:42;15.70;41.20
61016;DHT22;46902;52.920;6.536;2023-04-03T15:00:20;15.70;41.30
61016;DHT22;46902;52.920;6.536;2023-04-03T15:02:46;15.80;41.40
61016;DHT22;46902;52.920;6.536;2023-04-03T15:05:13;15.70;41.60
61016;DHT22;46902;52.920;6.536;2023-04-03T15:07:47;15.60;41.20
61016;DHT22;46902;52.920;6.536;2023-04-03T15:10:22;15.60;41.70
61016;DHT22;46902;52.920;6.536;2023-04-03T15:12:49;15.50;41.80
61016;DHT22;46902;52.920;6.536;2023-04-03T15:15:16;15.40;42.40
61016;DHT22;46902;52.920;6.536;2023-04-03T15:17:42;15.50;41.60
61016;DHT22;46902;52.920;6.536;2023-04-03T15:20:16;15.40;41.30
61016;DHT22;46902;52.920;6.536;2023-04-03T15:22:42;15.20;40.90
61016;DHT22;46902;52.920;6.536;2023-04-03T15:25:08;15.00;41.40
61016;DHT22;46902;52.920;6.536;2023-04-03T15:27:35;14.80;41.60
61016;DHT22;46902;52.920;6.536;2023-04-03T15:30:01;14.80;41.60
61016;DHT22;46902;52.920;6.536;2023-04-03T15:32:26;14.70;41.50
61016;DHT22;46902;52.920;6.536;2023-04-03T15:34:53;14.70;42.10
61016;DHT22;46902;52.920;6.536;2023-04-03T15:37:19;14.70;41.90
61016;DHT22;46902;52.920;6.536;2023-04-03T15:39:45;14.60;42.00
61016;DHT22;46902;52.920;6.536;2023-04-03T15:42:11;14.60;42.50
61016;DHT22;46902;52.920;6.536;2023-04-03T15:44:37;14.60;42.80
61016;DHT22;46902;52.920;6.536;2023-04-03T15:47:03;14.50;42.70
61016;DHT22;46902;52.920;6.536;2023-04-03T15:49:30;14.30;42.50
61016;DHT22;46902;52.920;6.536;2023-04-03T15:51:57;14.30;42.10
61016;DHT22;46902;52.920;6.536;2023-04-03T15:54:23;14.20;42.20
61016;DHT22;46902;52.920;6.536;2023-04-03T15:56:51;14.20;43.30
61016;DHT22;46902;52.920;6.536;2023-04-03T15:59:17;14.20;42.90
61016;DHT22;46902;52.920;6.536;2023-04-03T16:01:43;14.20;43.30
61016;DHT22;46902;52.920;6.536;2023-04-03T16:04:09;14.20;43.80
61016;DHT22;46902;52.920;6.536;2023-04-03T16:06:35;14.20;42.90
61016;DHT22;46902;52.920;6.536;2023-04-03T16:09:01;14.00;42.80
61016;DHT22;46902;52.920;6.536;2023-04-03T16:11:27;13.90;42.30
61016;DHT22;46902;52.920;6.536;2023-04-03T16:13:54;13.80;43.10
61016;DHT22;46902;52.920;6.536;2023-04-03T16:16:20;13.80;43.00
61016;DHT22;46902;52.920;6.536;2023-04-03T16:18:46;13.70;42.80
61016;DHT22;46902;52.920;6.536;2023-04-03T16:21:13;13.60;43.00
61016;DHT22;46902;52.920;6.536;2023-04-03T16:23:40;13.50;43.00
61016;DHT22;46902;52.920;6.536;2023-04-03T16:26:06;13.40;42.90
61016;DHT22;46902;52.920;6.536;2023-04-03T16:28:32;13.30;42.80
61016;DHT22;46902;52.920;6.536;2023-04-03T16:30:59;13.20;42.70
61016;DHT22;46902;52.920;6.536;2023-04-03T16:33:25;13.10;42.70
61016;DHT22;46902;52.920;6.536;2023-04-03T16:35:51;13.00;43.20
61016;DHT22;46902;52.920;6.536;2023-04-03T16:38:17;13.10;42.90
61016;DHT22;46902;52.920;6.536;2023-04-03T16:40:47;13.10;43.00
61016;DHT22;46902;52.920;6.536;2023-04-03T16:43:14;13.00;42.90
61016;DHT22;46902;52.920;6.536;2023-04-03T16:45:40;13.10;43.80
61016;DHT22;46902;52.920;6.536;2023-04-03T16:48:05;13.00;43.50
61016;DHT22;46902;52.920;6.536;2023-04-03T16:50:31;12.90;43.50
61016;DHT22;46902;52.920;6.536;2023-04-03T16:52:57;12.90;44.00
61016;DHT22;46902;52.920;6.536;2023-04-03T16:55:23;12.80;44.30
61016;DHT22;46902;52.920;6.536;2023-04-03T16:57:48;12.70;44.10
61016;DHT22;46902;52.920;6.536;2023-04-03T17:00:14;12.70;45.20
61016;DHT22;46902;52.920;6.536;2023-04-03T17:02:40;12.70;45.10
61016;DHT22;46902;52.920;6.536;2023-04-03T17:05:07;12.60;44.70
61016;DHT22;46902;52.920;6.536;2023-04-03T17:07:33;12.60;44.40
61016;DHT22;46902;52.920;6.536;2023-04-03T17:09:58;12.50;43.90
61016;DHT22;46902;52.920;6.536;2023-04-03T17:12:25;12.50;44.20
61016;DHT22;46902;52.920;6.536;2023-04-03T17:14:51;12.40;44.30
61016;DHT22;46902;52.920;6.536;2023-04-03T17:17:21;12.30;44.80
61016;DHT22;46902;52.920;6.536;2023-04-03T17:19:47;12.20;44.60
61016;DHT22;46902;52.920;6.536;2023-04-03T17:22:13;12.20;45.00
61016;DHT22;46902;52.920;6.536;2023-04-03T17:24:39;12.10;45.50
61016;DHT22;46902;52.920;6.536;2023-04-03T17:27:05;12.00;45.50
61016;DHT22;46902;52.920;6.536;2023-04-03T17:29:30;11.90;45.50
61016;DHT22;46902;52.920;6.536;2023-04-03T17:31:56;11.80;46.10